sensor_id;sensor_type;location;lat;lon;timestamp;temperature;humidity
37594;DHT22;23441;50.856;6.076;2024-02-16T00:02:15;12.80;99.90
37594;DHT22;23441;50.856;6.076;2024-02-16T00:05:02;12.90;99.90
37594;DHT22;23441;50.856;6.076;2024-02-16T00:07:49;12.80;99.90
37594;DHT22;23441;50.856;6.076;2024-02-16T00:10:34;12.90;99.90
37594;DHT22;23441;50.856;6.076;2024-02-16T00:13:20;13.00;99.90
37594;DHT22;23441;50.856;6.076;2024-02-16T00:16:07;13.10;99.90
37594;DHT22;23441;50.856;6.076;2024-02-16T00:18:53;13.10;99.90
37594;DHT22;23441;50.856;6.076;2024-02-16T00:21:39;13.10;99.90
37594;DHT22;23441;50.856;6.076;2024-02-16T00:24:27;13.20;99.90
37594;DHT22;23441;50.856;6.076;2024-02-16T00:27:14;13.20;99.90
37594;DHT22;23441;50.856;6.076;2024-02-16T00:30:00;13.30;99.90
37594;DHT22;23441;50.856;6.076;2024-02-16T00:32:48;13.20;99.90
37594;DHT22;23441;50.856;6.076;2024-02-16T00:35:34;13.30;99.90
37594;DHT22;23441;50.856;6.076;2024-02-16T00:38:20;13.30;99.90
37594;DHT22;23441;50.856;6.076;2024-02-16T00:41:06;13.20;99.90
37594;DHT22;23441;50.856;6.076;2024-02-16T00:43:53;13.20;99.90
37594;DHT22;23441;50.856;6.076;2024-02-16T00:46:39;13.20;99.90
37594;DHT22;23441;50.856;6.076;2024-02-16T00:49:25;13.20;99.90
37594;DHT22;23441;50.856;6.076;2024-02-16T00:52:11;13.30;99.90
37594;DHT22;23441;50.856;6.076;2024-02-16T00:54:57;13.20;99.90
37594;DHT22;23441;50.856;6.076;2024-02-16T00:57:43;13.30;99.90
37594;DHT22;23441;50.856;6.076;2024-02-16T01:00:30;13.40;99.90
37594;DHT22;23441;50.856;6.076;2024-02-16T01:03:16;13.40;99.90
37594;DHT22;23441;50.856;6.076;2024-02-16T01:06:02;13.40;99.90
37594;DHT22;23441;50.856;6.076;2024-02-16T01:08:48;13.50;99.90
37594;DHT22;23441;50.856;6.076;2024-02-16T01:11:34;13.60;99.90
37594;DHT22;23441;50.856;6.076;2024-02-16T01:14:20;13.50;99.90
37594;DHT22;23441;50.856;6.076;2024-02-16T01:17:06;13.50;99.90
37594;DHT22;23441;50.856;6.076;2024-02-16T01:19:52;13.50;99.90
37594;DHT22;23441;50.856;6.076;2024-02-16T01:22:39;13.50;99.90
37594;DHT22;23441;50.856;6.076;2024-02-16T01:25:25;13.40;99.90
37594;DHT22;23441;50.856;6.076;2024-02-16T01:28:11;13.40;99.90
37594;DHT22;23441;50.856;6.076;2024-02-16T01:30:58;13.40;99.90
37594;DHT22;23441;50.856;6.076;2024-02-16T01:33:44;13.40;99.90
37594;DHT22;23441;50.856;6.076;2024-02-16T01:36:30;13.30;99.90
37594;DHT22;23441;50.856;6.076;2024-02-16T01:39:16;13.20;99.90
37594;DHT22;23441;50.856;6.076;2024-02-16T01:42:02;13.10;99.90
37594;DHT22;23441;50.856;6.076;2024-02-16T01:44:48;13.00;99.90
37594;DHT22;23441;50.856;6.076;2024-02-16T01:47:34;13.00;99.90
37594;DHT22;23441;50.856;6.076;2024-02-16T01:50:21;12.90;99.90
37594;DHT22;23441;50.856;6.076;2024-02-16T01:53:08;13.00;99.90
37594;DHT22;23441;50.856;6.076;2024-02-16T01:55:55;13.00;99.90
37594;DHT22;23441;50.856;6.076;2024-02-16T01:58:41;13.00;99.90
37594;DHT22;23441;50.856;6.076;2024-02-16T02:01:27;13.00;99.90
37594;DHT22;23441;50.856;6.076;2024-02-16T02:04:13;13.10;99.90
37594;DHT22;23441;50.856;6.076;2024-02-16T02:06:59;13.20;99.90
37594;DHT22;23441;50.856;6.076;2024-02-16T02:09:45;13.10;99.90
37594;DHT22;23441;50.856;6.076;2024-02-16T02:12:31;13.10;99.90
37594;DHT22;23441;50.856;6.076;2024-02-16T02:15:17;13.20;99.90
37594;DHT22;23441;50.856;6.076;2024-02-16T02:18:03;13.10;99.90
37594;DHT22;23441;50.856;6.076;2024-02-16T02:20:49;13.20;99.90
37594;DHT22;23441;50.856;6.076;2024-02-16T02:23:35;13.20;99.90
37594;DHT22;23441;50.856;6.076;2024-02-16T02:26:21;13.10;99.90
37594;DHT22;23441;50.856;6.076;2024-02-16T02:29:07;13.10;99.90
37594;DHT22;23441;50.856;6.076;2024-02-16T02:31:53;13.20;99.90
37594;DHT22;23441;50.856;6.076;2024-02-16T02:34:40;13.10;99.90
37594;DHT22;23441;50.856;6.076;2024-02-16T02:37:26;13.10;99.90
37594;DHT22;23441;50.856;6.076;2024-02-16T02:40:12;13.00;99.90
37594;DHT22;23441;50.856;6.076;2024-02-16T02:42:58;12.90;99.90
37594;DHT22;23441;50.856;6.076;2024-02-16T02:45:44;12.80;99.90
37594;DHT22;23441;50.856;6.076;2024-02-16T02:48:30;12.80;99.90
37594;DHT22;23441;50.856;6.076;2024-02-16T02:51:16;12.80;99.90
37594;DHT22;23441;50.856;6.076;2024-02-16T02:54:02;12.70;99.90
37594;DHT22;23441;50.856;6.076;2024-02-16T02:56:48;12.70;99.90
37594;DHT22;23441;50.856;6.076;2024-02-16T02:59:34;12.70;99.90
37594;DHT22;23441;50.856;6.076;2024-02-16T03:02:20;12.70;99.90
37594;DHT22;23441;50.856;6.076;2024-02-16T03:05:07;12.70;99.90
37594;DHT22;23441;50.856;6.076;2024-02-16T03:07:53;12.70;99.90
37594;DHT22;23441;50.856;6.076;2024-02-16T03:10:39;12.80;99.90
37594;DHT22;23441;50.856;6.076;2024-02-16T03:13:25;12.90;99.90
37594;DHT22;23441;50.856;6.076;2024-02-16T03:16:11;13.00;99.90
37594;DHT22;23441;50.856;6.076;2024-02-16T03:18:57;13.10;99.90
37594;DHT22;23441;50.856;6.076;2024-02-16T03:21:43;13.10;99.90
37594;DHT22;23441;50.856;6.076;2024-02-16T03:24:29;13.20;99.90
37594;DHT22;23441;50.856;6.076;2024-02-16T03:27:15;13.20;99.90
37594;DHT22;23441;50.856;6.076;2024-02-16T03:30:01;13.20;99.90
37594;DHT22;23441;50.856;6.076;2024-02-16T03:32:51;13.20;99.90
37594;DHT22;23441;50.856;6.076;2024-02-16T03:35:37;13.10;99.90
37594;DHT22;23441;50.856;6.076;2024-02-16T03:38:23;13.20;99.90
37594;DHT22;23441;50.856;6.076;2024-02-16T03:41:14;13.20;99.90
37594;DHT22;23441;50.856;6.076;2024-02-16T03:44:00;13.10;99.90
37594;DHT22;23441;50.856;6.076;2024-02-16T03:46:47;13.20;99.90
37594;DHT22;23441;50.856;6.076;2024-02-16T03:49:32;13.30;99.90
37594;DHT22;23441;50.856;6.076;2024-02-16T03:52:18;13.30;99.90
37594;DHT22;23441;50.856;6.076;2024-02-16T03:55:05;13.30;99.90
37594;DHT22;23441;50.856;6.076;2024-02-16T03:57:51;13.30;99.90
37594;DHT22;23441;50.856;6.076;2024-02-16T04:00:37;13.40;99.90
37594;DHT22;23441;50.856;6.076;2024-02-16T04:03:24;13.40;99.90
37594;DHT22;23441;50.856;6.076;2024-02-16T04:06:10;13.30;99.90
37594;DHT22;23441;50.856;6.076;2024-02-16T04:08:55;13.30;99.90
37594;DHT22;23441;50.856;6.076;2024-02-16T04:11:41;13.40;99.90
37594;DHT22;23441;50.856;6.076;2024-02-16T04:14:27;13.30;99.90
37594;DHT22;23441;50.856;6.076;2024-02-16T04:17:13;13.30;99.90
37594;DHT22;23441;50.856;6.076;2024-02-16T04:19:59;13.30;99.90
37594;DHT22;23441;50.856;6.076;2024-02-16T04:22:45;13.30;99.90
37594;DHT22;23441;50.856;6.076;2024-02-16T04:25:31;13.30;99.90
37594;DHT22;23441;50.856;6.076;2024-02-16T04:28:17;13.30;99.90
37594;DHT22;23441;50.856;6.076;2024-02-16T04:31:04;13.30;99.90
37594;DHT22;23441;50.856;6.076;2024-02-16T04:33:50;13.30;99.90
37594;DHT22;23441;50.856;6.076;2024-02-16T04:36:36;13.40;99.90
37594;DHT22;23441;50.856;6.076;2024-02-16T04:39:22;13.40;99.90
37594;DHT22;23441;50.856;6.076;2024-02-16T04:42:08;13.40;99.90
37594;DHT22;23441;50.856;6.076;2024-02-16T04:44:54;13.40;99.90
37594;DHT22;23441;50.856;6.076;2024-02-16T04:47:40;13.30;99.90
37594;DHT22;23441;50.856;6.076;2024-02-16T04:50:26;13.30;99.90
37594;DHT22;23441;50.856;6.076;2024-02-16T04:53:13;13.20;99.90
37594;DHT22;23441;50.856;6.076;2024-02-16T04:55:59;13.30;99.90
37594;DHT22;23441;50.856;6.076;2024-02-16T04:58:45;13.20;99.90
37594;DHT22;23441;50.856;6.076;2024-02-16T05:01:31;13.20;99.90
37594;DHT22;23441;50.856;6.076;2024-02-16T05:04:17;13.20;99.90
37594;DHT22;23441;50.856;6.076;2024-02-16T05:07:04;13.30;99.90
37594;DHT22;23441;50.856;6.076;2024-02-16T05:09:50;13.30;99.90
37594;DHT22;23441;50.856;6.076;2024-02-16T05:12:37;13.40;99.90
37594;DHT22;23441;50.856;6.076;2024-02-16T05:15:23;13.40;99.90
37594;DHT22;23441;50.856;6.076;2024-02-16T05:18:09;13.40;99.90
37594;DHT22;23441;50.856;6.076;2024-02-16T05:20:58;13.40;99.90
37594;DHT22;23441;50.856;6.076;2024-02-16T05:23:44;13.50;99.90
37594;DHT22;23441;50.856;6.076;2024-02-16T05:26:30;13.50;99.90
37594;DHT22;23441;50.856;6.076;2024-02-16T05:29:16;13.50;99.90
37594;DHT22;23441;50.856;6.076;2024-02-16T05:32:02;13.50;99.90
37594;DHT22;23441;50.856;6.076;2024-02-16T05:34:48;13.50;99.90
37594;DHT22;23441;50.856;6.076;2024-02-16T05:37:34;13.50;99.90
37594;DHT22;23441;50.856;6.076;2024-02-16T05:40:20;13.40;99.90
37594;DHT22;23441;50.856;6.076;2024-02-16T05:43:15;13.40;99.90
37594;DHT22;23441;50.856;6.076;2024-02-16T05:46:03;13.40;99.90
37594;DHT22;23441;50.856;6.076;2024-02-16T05:48:51;13.50;99.90
37594;DHT22;23441;50.856;6.076;2024-02-16T05:51:37;13.50;99.90
37594;DHT22;23441;50.856;6.076;2024-02-16T05:54:26;13.50;99.90
37594;DHT22;23441;50.856;6.076;2024-02-16T05:57:13;13.50;99.90
37594;DHT22;23441;50.856;6.076;2024-02-16T05:59:59;13.40;99.90
37594;DHT22;23441;50.856;6.076;2024-02-16T06:02:45;13.40;99.90
37594;DHT22;23441;50.856;6.076;2024-02-16T06:05:31;13.40;99.90
37594;DHT22;23441;50.856;6.076;2024-02-16T06:08:18;13.40;99.90
37594;DHT22;23441;50.856;6.076;2024-02-16T06:11:07;13.40;99.90
37594;DHT22;23441;50.856;6.076;2024-02-16T06:13:53;13.30;99.90
37594;DHT22;23441;50.856;6.076;2024-02-16T06:16:39;13.40;99.90
37594;DHT22;23441;50.856;6.076;2024-02-16T06:19:28;13.40;99.90
37594;DHT22;23441;50.856;6.076;2024-02-16T06:22:14;13.30;99.90
37594;DHT22;23441;50.856;6.076;2024-02-16T06:25:00;13.30;99.90
37594;DHT22;23441;50.856;6.076;2024-02-16T06:27:46;13.30;99.90
37594;DHT22;23441;50.856;6.076;2024-02-16T06:30:32;13.30;99.90
37594;DHT22;23441;50.856;6.076;2024-02-16T06:33:18;13.20;99.90
37594;DHT22;23441;50.856;6.076;2024-02-16T06:36:04;13.10;99.90
37594;DHT22;23441;50.856;6.076;2024-02-16T06:38:50;13.10;99.90
37594;DHT22;23441;50.856;6.076;2024-02-16T06:41:37;13.10;99.90
37594;DHT22;23441;50.856;6.076;2024-02-16T06:44:23;13.00;99.90
37594;DHT22;23441;50.856;6.076;2024-02-16T06:47:09;12.90;99.90
37594;DHT22;23441;50.856;6.076;2024-02-16T06:49:55;12.80;99.90
37594;DHT22;23441;50.856;6.076;2024-02-16T06:52:41;12.70;99.90
37594;DHT22;23441;50.856;6.076;2024-02-16T06:55:27;12.60;99.90
37594;DHT22;23441;50.856;6.076;2024-02-16T06:58:13;12.60;99.90
37594;DHT22;23441;50.856;6.076;2024-02-16T07:00:59;12.60;99.90
37594;DHT22;23441;50.856;6.076;2024-02-16T07:03:48;12.60;99.90
37594;DHT22;23441;50.856;6.076;2024-02-16T07:06:35;12.60;99.90
37594;DHT22;23441;50.856;6.076;2024-02-16T07:09:21;12.60;99.90
37594;DHT22;23441;50.856;6.076;2024-02-16T07:12:07;12.60;99.90
37594;DHT22;23441;50.856;6.076;2024-02-16T07:14:53;12.60;99.90
37594;DHT22;23441;50.856;6.076;2024-02-16T07:17:39;12.60;99.90
37594;DHT22;23441;50.856;6.076;2024-02-16T07:20:25;12.70;99.90
37594;DHT22;23441;50.856;6.076;2024-02-16T07:23:11;12.70;99.90
37594;DHT22;23441;50.856;6.076;2024-02-16T07:25:57;12.70;99.90
37594;DHT22;23441;50.856;6.076;2024-02-16T07:28:44;12.80;99.90
37594;DHT22;23441;50.856;6.076;2024-02-16T07:31:33;12.80;99.90
37594;DHT22;23441;50.856;6.076;2024-02-16T07:34:20;12.80;99.90
37594;DHT22;23441;50.856;6.076;2024-02-16T07:37:05;12.80;99.90
37594;DHT22;23441;50.856;6.076;2024-02-16T07:39:52;12.80;99.90
37594;DHT22;23441;50.856;6.076;2024-02-16T07:42:39;12.90;99.90
37594;DHT22;23441;50.856;6.076;2024-02-16T07:45:25;13.00;99.90
37594;DHT22;23441;50.856;6.076;2024-02-16T07:48:11;13.00;99.90
37594;DHT22;23441;50.856;6.076;2024-02-16T07:50:57;13.00;99.90
37594;DHT22;23441;50.856;6.076;2024-02-16T07:53:48;13.00;99.90
37594;DHT22;23441;50.856;6.076;2024-02-16T07:56:34;13.10;99.90
37594;DHT22;23441;50.856;6.076;2024-02-16T07:59:20;13.20;99.90
37594;DHT22;23441;50.856;6.076;2024-02-16T08:02:06;13.30;99.90
37594;DHT22;23441;50.856;6.076;2024-02-16T08:04:52;13.40;99.90
37594;DHT22;23441;50.856;6.076;2024-02-16T08:07:39;13.40;99.90
37594;DHT22;23441;50.856;6.076;2024-02-16T08:10:28;13.50;99.90
37594;DHT22;23441;50.856;6.076;2024-02-16T08:13:14;13.50;99.90
37594;DHT22;23441;50.856;6.076;2024-02-16T08:16:00;13.50;99.90
37594;DHT22;23441;50.856;6.076;2024-02-16T08:18:45;13.50;99.90
37594;DHT22;23441;50.856;6.076;2024-02-16T08:21:31;13.60;99.90
37594;DHT22;23441;50.856;6.076;2024-02-16T08:24:17;13.70;99.90
37594;DHT22;23441;50.856;6.076;2024-02-16T08:27:03;13.60;99.90
37594;DHT22;23441;50.856;6.076;2024-02-16T08:29:50;13.70;99.90
37594;DHT22;23441;50.856;6.076;2024-02-16T08:32:37;13.70;99.90
37594;DHT22;23441;50.856;6.076;2024-02-16T08:35:23;13.70;99.90
37594;DHT22;23441;50.856;6.076;2024-02-16T08:38:09;13.70;99.90
37594;DHT22;23441;50.856;6.076;2024-02-16T08:40:56;13.70;99.90
37594;DHT22;23441;50.856;6.076;2024-02-16T08:43:42;13.70;99.90
37594;DHT22;23441;50.856;6.076;2024-02-16T08:46:28;13.80;99.90
37594;DHT22;23441;50.856;6.076;2024-02-16T08:49:15;13.90;99.90
37594;DHT22;23441;50.856;6.076;2024-02-16T08:52:02;14.00;99.90
37594;DHT22;23441;50.856;6.076;2024-02-16T08:54:48;14.00;99.90
37594;DHT22;23441;50.856;6.076;2024-02-16T08:57:34;14.00;99.90
37594;DHT22;23441;50.856;6.076;2024-02-16T09:00:20;14.00;99.90
37594;DHT22;23441;50.856;6.076;2024-02-16T09:03:06;14.00;99.90
37594;DHT22;23441;50.856;6.076;2024-02-16T09:05:52;14.10;99.90
37594;DHT22;23441;50.856;6.076;2024-02-16T09:08:38;14.20;99.90
37594;DHT22;23441;50.856;6.076;2024-02-16T09:11:24;14.20;99.90
37594;DHT22;23441;50.856;6.076;2024-02-16T09:14:09;14.20;99.90
37594;DHT22;23441;50.856;6.076;2024-02-16T09:16:55;14.20;99.90
37594;DHT22;23441;50.856;6.076;2024-02-16T09:19:41;14.30;99.90
37594;DHT22;23441;50.856;6.076;2024-02-16T09:22:27;14.30;99.90
37594;DHT22;23441;50.856;6.076;2024-02-16T09:25:14;14.20;99.90
37594;DHT22;23441;50.856;6.076;2024-02-16T09:28:00;14.30;99.90
37594;DHT22;23441;50.856;6.076;2024-02-16T09:30:47;14.30;99.90
37594;DHT22;23441;50.856;6.076;2024-02-16T09:33:33;14.40;99.90
37594;DHT22;23441;50.856;6.076;2024-02-16T09:36:19;14.40;99.90
37594;DHT22;23441;50.856;6.076;2024-02-16T09:39:05;14.50;99.90
37594;DHT22;23441;50.856;6.076;2024-02-16T09:41:51;14.50;99.90
37594;DHT22;23441;50.856;6.076;2024-02-16T09:44:40;14.50;99.90
37594;DHT22;23441;50.856;6.076;2024-02-16T09:47:27;14.50;99.90
37594;DHT22;23441;50.856;6.076;2024-02-16T09:50:18;14.50;99.90
37594;DHT22;23441;50.856;6.076;2024-02-16T09:53:05;14.50;99.90
37594;DHT22;23441;50.856;6.076;2024-02-16T09:55:52;14.50;99.90
37594;DHT22;23441;50.856;6.076;2024-02-16T09:58:39;14.50;99.90
37594;DHT22;23441;50.856;6.076;2024-02-16T10:01:26;14.50;99.90
37594;DHT22;23441;50.856;6.076;2024-02-16T10:04:12;14.50;99.90
37594;DHT22;23441;50.856;6.076;2024-02-16T10:06:58;14.60;99.90
37594;DHT22;23441;50.856;6.076;2024-02-16T10:09:44;14.80;99.90
37594;DHT22;23441;50.856;6.076;2024-02-16T10:12:30;14.80;99.90
37594;DHT22;23441;50.856;6.076;2024-02-16T10:15:25;15.00;99.90
37594;DHT22;23441;50.856;6.076;2024-02-16T10:18:11;15.00;99.90
37594;DHT22;23441;50.856;6.076;2024-02-16T10:20:57;15.00;99.90
37594;DHT22;23441;50.856;6.076;2024-02-16T10:23:43;15.00;99.90
37594;DHT22;23441;50.856;6.076;2024-02-16T10:26:29;15.00;99.90
37594;DHT22;23441;50.856;6.076;2024-02-16T10:29:18;15.00;99.90
37594;DHT22;23441;50.856;6.076;2024-02-16T10:32:07;15.10;99.90
37594;DHT22;23441;50.856;6.076;2024-02-16T10:34:54;15.10;99.90
37594;DHT22;23441;50.856;6.076;2024-02-16T10:37:40;15.10;99.90
37594;DHT22;23441;50.856;6.076;2024-02-16T10:40:27;15.20;99.90
37594;DHT22;23441;50.856;6.076;2024-02-16T10:43:15;15.00;99.90
37594;DHT22;23441;50.856;6.076;2024-02-16T10:46:03;14.90;99.90
37594;DHT22;23441;50.856;6.076;2024-02-16T10:48:50;14.90;99.90
37594;DHT22;23441;50.856;6.076;2024-02-16T10:51:48;14.80;99.90
37594;DHT22;23441;50.856;6.076;2024-02-16T10:54:37;14.80;99.90
37594;DHT22;23441;50.856;6.076;2024-02-16T10:57:24;14.80;99.90
37594;DHT22;23441;50.856;6.076;2024-02-16T11:00:11;14.80;99.90
37594;DHT22;23441;50.856;6.076;2024-02-16T11:02:58;14.70;99.90
37594;DHT22;23441;50.856;6.076;2024-02-16T11:05:45;14.70;99.90
37594;DHT22;23441;50.856;6.076;2024-02-16T11:08:38;14.60;99.90
37594;DHT22;23441;50.856;6.076;2024-02-16T11:11:24;14.60;99.90
37594;DHT22;23441;50.856;6.076;2024-02-16T11:14:16;14.50;99.90
37594;DHT22;23441;50.856;6.076;2024-02-16T11:17:12;14.50;99.90
37594;DHT22;23441;50.856;6.076;2024-02-16T11:20:00;14.50;99.90
37594;DHT22;23441;50.856;6.076;2024-02-16T11:22:46;14.40;99.90
37594;DHT22;23441;50.856;6.076;2024-02-16T11:25:32;14.50;99.90
37594;DHT22;23441;50.856;6.076;2024-02-16T11:28:18;14.40;99.90
37594;DHT22;23441;50.856;6.076;2024-02-16T11:31:04;14.50;99.90
37594;DHT22;23441;50.856;6.076;2024-02-16T11:33:51;14.50;99.90
37594;DHT22;23441;50.856;6.076;2024-02-16T11:36:36;14.50;99.90
37594;DHT22;23441;50.856;6.076;2024-02-16T11:39:23;14.40;99.90
37594;DHT22;23441;50.856;6.076;2024-02-16T11:42:11;14.40;99.90
37594;DHT22;23441;50.856;6.076;2024-02-16T11:44:57;14.40;99.90
37594;DHT22;23441;50.856;6.076;2024-02-16T11:47:43;14.40;99.90
37594;DHT22;23441;50.856;6.076;2024-02-16T11:50:30;14.40;99.90
37594;DHT22;23441;50.856;6.076;2024-02-16T11:53:17;14.40;99.90
37594;DHT22;23441;50.856;6.076;2024-02-16T11:56:06;14.30;99.90
37594;DHT22;23441;50.856;6.076;2024-02-16T11:58:53;14.30;99.90
37594;DHT22;23441;50.856;6.076;2024-02-16T12:04:37;14.20;99.90
37594;DHT22;23441;50.856;6.076;2024-02-16T12:07:25;14.10;99.90
37594;DHT22;23441;50.856;6.076;2024-02-16T12:10:13;14.10;99.90
37594;DHT22;23441;50.856;6.076;2024-02-16T12:12:59;14.00;99.90
37594;DHT22;23441;50.856;6.076;2024-02-16T12:15:49;14.00;99.90
37594;DHT22;23441;50.856;6.076;2024-02-16T12:18:35;14.00;99.90
37594;DHT22;23441;50.856;6.076;2024-02-16T12:21:21;14.00;99.90
37594;DHT22;23441;50.856;6.076;2024-02-16T12:24:07;13.90;99.90
37594;DHT22;23441;50.856;6.076;2024-02-16T12:26:53;14.00;99.90
37594;DHT22;23441;50.856;6.076;2024-02-16T12:29:40;14.00;99.90
37594;DHT22;23441;50.856;6.076;2024-02-16T12:32:26;13.90;99.90
37594;DHT22;23441;50.856;6.076;2024-02-16T12:35:12;13.80;99.90
37594;DHT22;23441;50.856;6.076;2024-02-16T12:37:58;13.70;99.90
37594;DHT22;23441;50.856;6.076;2024-02-16T12:40:44;13.70;99.90
37594;DHT22;23441;50.856;6.076;2024-02-16T12:43:30;13.70;99.90
37594;DHT22;23441;50.856;6.076;2024-02-16T12:46:16;13.60;99.90
37594;DHT22;23441;50.856;6.076;2024-02-16T12:49:02;13.60;99.90
37594;DHT22;23441;50.856;6.076;2024-02-16T12:51:51;13.60;99.90
37594;DHT22;23441;50.856;6.076;2024-02-16T12:54:37;13.60;99.90
37594;DHT22;23441;50.856;6.076;2024-02-16T12:57:23;13.60;99.90
37594;DHT22;23441;50.856;6.076;2024-02-16T13:00:09;13.60;99.90
37594;DHT22;23441;50.856;6.076;2024-02-16T13:02:56;13.50;99.90
37594;DHT22;23441;50.856;6.076;2024-02-16T13:05:43;13.50;99.90
37594;DHT22;23441;50.856;6.076;2024-02-16T13:08:29;13.40;99.90
37594;DHT22;23441;50.856;6.076;2024-02-16T13:11:15;13.40;99.90
37594;DHT22;23441;50.856;6.076;2024-02-16T13:14:01;13.20;99.90
37594;DHT22;23441;50.856;6.076;2024-02-16T13:16:47;13.20;99.90
37594;DHT22;23441;50.856;6.076;2024-02-16T13:19:33;13.20;99.90
37594;DHT22;23441;50.856;6.076;2024-02-16T13:22:19;13.10;99.90
37594;DHT22;23441;50.856;6.076;2024-02-16T13:25:05;13.00;99.90
37594;DHT22;23441;50.856;6.076;2024-02-16T13:27:52;13.10;99.90
37594;DHT22;23441;50.856;6.076;2024-02-16T13:30:38;13.10;99.90
37594;DHT22;23441;50.856;6.076;2024-02-16T13:33:24;13.10;99.90
37594;DHT22;23441;50.856;6.076;2024-02-16T13:36:10;13.10;99.90
37594;DHT22;23441;50.856;6.076;2024-02-16T13:38:56;13.10;99.90
37594;DHT22;23441;50.856;6.076;2024-02-16T13:41:42;13.10;99.90
37594;DHT22;23441;50.856;6.076;2024-02-16T13:44:30;13.10;99.90
37594;DHT22;23441;50.856;6.076;2024-02-16T13:47:16;13.10;99.90
37594;DHT22;23441;50.856;6.076;2024-02-16T13:50:02;13.00;99.90
37594;DHT22;23441;50.856;6.076;2024-02-16T13:52:48;13.00;99.90
37594;DHT22;23441;50.856;6.076;2024-02-16T13:55:35;13.00;99.90
37594;DHT22;23441;50.856;6.076;2024-02-16T13:58:21;13.00;99.90
37594;DHT22;23441;50.856;6.076;2024-02-16T14:01:07;12.90;99.90
37594;DHT22;23441;50.856;6.076;2024-02-16T14:03:53;12.80;99.90
37594;DHT22;23441;50.856;6.076;2024-02-16T14:06:39;12.80;99.90
37594;DHT22;23441;50.856;6.076;2024-02-16T14:09:25;12.80;99.90
37594;DHT22;23441;50.856;6.076;2024-02-16T14:12:12;12.90;99.90
37594;DHT22;23441;50.856;6.076;2024-02-16T14:14:58;12.90;99.90
37594;DHT22;23441;50.856;6.076;2024-02-16T14:17:44;12.80;99.90
37594;DHT22;23441;50.856;6.076;2024-02-16T14:20:30;12.90;99.90
37594;DHT22;23441;50.856;6.076;2024-02-16T14:23:16;12.80;99.90
37594;DHT22;23441;50.856;6.076;2024-02-16T14:26:02;12.80;99.90
37594;DHT22;23441;50.856;6.076;2024-02-16T14:28:48;12.70;99.90
37594;DHT22;23441;50.856;6.076;2024-02-16T14:31:34;12.80;99.90
37594;DHT22;23441;50.856;6.076;2024-02-16T14:34:20;12.70;99.90
37594;DHT22;23441;50.856;6.076;2024-02-16T14:37:06;12.70;99.90
37594;DHT22;23441;50.856;6.076;2024-02-16T14:39:52;12.70;99.90
37594;DHT22;23441;50.856;6.076;2024-02-16T14:42:42;12.70;99.90
37594;DHT22;23441;50.856;6.076;2024-02-16T14:45:28;12.60;99.90
37594;DHT22;23441;50.856;6.076;2024-02-16T14:48:15;12.70;99.90
37594;DHT22;23441;50.856;6.076;2024-02-16T14:51:01;12.60;99.90
37594;DHT22;23441;50.856;6.076;2024-02-16T14:53:47;12.60;99.90
37594;DHT22;23441;50.856;6.076;2024-02-16T14:56:34;12.50;99.90
37594;DHT22;23441;50.856;6.076;2024-02-16T14:59:20;12.50;99.90
37594;DHT22;23441;50.856;6.076;2024-02-16T15:02:06;12.50;99.90
37594;DHT22;23441;50.856;6.076;2024-02-16T15:04:52;12.50;99.90
37594;DHT22;23441;50.856;6.076;2024-02-16T15:07:39;12.60;99.90
37594;DHT22;23441;50.856;6.076;2024-02-16T15:10:27;12.50;99.90
37594;DHT22;23441;50.856;6.076;2024-02-16T15:13:13;12.50;99.90
37594;DHT22;23441;50.856;6.076;2024-02-16T15:15:59;12.50;99.90
37594;DHT22;23441;50.856;6.076;2024-02-16T15:18:45;12.50;99.90
37594;DHT22;23441;50.856;6.076;2024-02-16T15:21:31;12.40;99.90
37594;DHT22;23441;50.856;6.076;2024-02-16T15:24:17;12.40;99.90
37594;DHT22;23441;50.856;6.076;2024-02-16T15:27:03;12.40;99.90
37594;DHT22;23441;50.856;6.076;2024-02-16T15:29:49;12.30;99.90
37594;DHT22;23441;50.856;6.076;2024-02-16T15:32:35;12.20;99.90
37594;DHT22;23441;50.856;6.076;2024-02-16T15:35:21;12.20;99.90
37594;DHT22;23441;50.856;6.076;2024-02-16T15:38:07;12.20;99.90
37594;DHT22;23441;50.856;6.076;2024-02-16T15:40:53;12.10;99.90
37594;DHT22;23441;50.856;6.076;2024-02-16T15:43:39;12.10;99.90
37594;DHT22;23441;50.856;6.076;2024-02-16T15:46:25;12.10;99.90
37594;DHT22;23441;50.856;6.076;2024-02-16T15:49:11;12.10;99.90
37594;DHT22;23441;50.856;6.076;2024-02-16T15:51:57;12.10;99.90
37594;DHT22;23441;50.856;6.076;2024-02-16T15:54:43;12.00;99.90
37594;DHT22;23441;50.856;6.076;2024-02-16T15:57:29;12.00;99.90
37594;DHT22;23441;50.856;6.076;2024-02-16T16:00:15;12.00;99.90
37594;DHT22;23441;50.856;6.076;2024-02-16T16:03:01;12.00;99.90
37594;DHT22;23441;50.856;6.076;2024-02-16T16:05:47;11.90;99.90
37594;DHT22;23441;50.856;6.076;2024-02-16T16:08:33;11.80;99.90
37594;DHT22;23441;50.856;6.076;2024-02-16T16:11:20;11.80;99.90
37594;DHT22;23441;50.856;6.076;2024-02-16T16:14:06;11.80;99.90
37594;DHT22;23441;50.856;6.076;2024-02-16T16:16:52;11.80;99.90
37594;DHT22;23441;50.856;6.076;2024-02-16T16:19:39;11.80;99.90
37594;DHT22;23441;50.856;6.076;2024-02-16T16:22:25;11.80;99.90
37594;DHT22;23441;50.856;6.076;2024-02-16T16:25:11;11.90;99.90
37594;DHT22;23441;50.856;6.076;2024-02-16T16:27:57;11.90;99.90
37594;DHT22;23441;50.856;6.076;2024-02-16T16:30:43;11.90;99.90
37594;DHT22;23441;50.856;6.076;2024-02-16T16:33:29;11.90;99.90
37594;DHT22;23441;50.856;6.076;2024-02-16T16:36:15;11.90;99.90
37594;DHT22;23441;50.856;6.076;2024-02-16T16:39:02;11.90;99.90
37594;DHT22;23441;50.856;6.076;2024-02-16T16:41:49;11.80;99.90
37594;DHT22;23441;50.856;6.076;2024-02-16T16:44:35;11.90;99.90
37594;DHT22;23441;50.856;6.076;2024-02-16T16:47:21;11.80;99.90
37594;DHT22;23441;50.856;6.076;2024-02-16T16:50:08;11.80;99.90
37594;DHT22;23441;50.856;6.076;2024-02-16T16:52:54;11.70;99.90
37594;DHT22;23441;50.856;6.076;2024-02-16T16:55:40;11.80;99.90
37594;DHT22;23441;50.856;6.076;2024-02-16T16:58:26;11.80;99.90
37594;DHT22;23441;50.856;6.076;2024-02-16T17:01:12;11.80;99.90
37594;DHT22;23441;50.856;6.076;2024-02-16T17:03:59;11.70;99.90
37594;DHT22;23441;50.856;6.076;2024-02-16T17:06:45;11.70;99.90
37594;DHT22;23441;50.856;6.076;2024-02-16T17:09:31;11.60;99.90
37594;DHT22;23441;50.856;6.076;2024-02-16T17:12:19;11.60;99.90
37594;DHT22;23441;50.856;6.076;2024-02-16T17:15:07;11.70;99.90
37594;DHT22;23441;50.856;6.076;2024-02-16T17:17:53;11.50;99.90
37594;DHT22;23441;50.856;6.076;2024-02-16T17:20:40;11.60;99.90
37594;DHT22;23441;50.856;6.076;2024-02-16T17:23:30;11.50;99.90
37594;DHT22;23441;50.856;6.076;2024-02-16T17:26:16;11.40;99.90
37594;DHT22;23441;50.856;6.076;2024-02-16T17:29:02;11.50;99.90
37594;DHT22;23441;50.856;6.076;2024-02-16T17:31:48;11.50;99.90
37594;DHT22;23441;50.856;6.076;2024-02-16T17:34:34;11.40;99.90